createdAt,value
2017-10-21T00:01:17.780Z,33.83
2017-10-21T00:03:46.125Z,27.60
2017-10-21T00:06:13.634Z,30.10
2017-10-21T00:08:41.914Z,27.77
2017-10-21T00:11:09.443Z,29.13
2017-10-21T00:13:36.962Z,29.80
2017-10-21T00:16:04.852Z,23.03
2017-10-21T00:18:32.385Z,18.00
2017-10-21T00:20:59.901Z,23.37
2017-10-21T00:23:27.449Z,22.93
2017-10-21T00:25:54.996Z,19.27
2017-10-21T00:28:22.813Z,16.47
2017-10-21T00:30:51.119Z,22.40
2017-10-21T00:33:18.650Z,17.80
2017-10-21T00:35:46.209Z,18.67
2017-10-21T00:38:14.477Z,19.27
2017-10-21T00:40:43.045Z,28.53
2017-10-21T00:43:10.579Z,16.10
2017-10-21T00:45:38.086Z,16.43
2017-10-21T00:48:06.387Z,19.33
2017-10-21T00:50:34.826Z,17.10
2017-10-21T00:53:02.441Z,21.57
2017-10-21T00:55:29.956Z,19.40
2017-10-21T00:57:58.263Z,14.07
2017-10-21T01:00:25.815Z,16.50
2017-10-21T01:02:53.952Z,20.07
2017-10-21T01:05:21.513Z,14.33
2017-10-21T01:07:49.040Z,14.73
2017-10-21T01:10:16.554Z,11.83
2017-10-21T01:12:44.871Z,11.10
2017-10-21T01:15:12.370Z,14.53
2017-10-21T01:17:39.932Z,12.43
2017-10-21T01:20:07.469Z,14.03
2017-10-21T01:22:34.988Z,13.60
2017-10-21T01:25:03.302Z,11.00
2017-10-21T01:27:30.809Z,15.50
2017-10-21T01:29:59.484Z,13.20
2017-10-21T01:32:27.786Z,9.17
2017-10-21T01:34:55.304Z,10.73
2017-10-21T01:37:22.846Z,15.23
2017-10-21T01:39:50.355Z,10.97
2017-10-21T01:42:19.002Z,10.40
2017-10-21T01:44:46.518Z,10.90
2017-10-21T01:47:14.029Z,9.80
2017-10-21T01:49:41.573Z,9.00
2017-10-21T01:52:09.080Z,11.07
2017-10-21T01:54:37.380Z,9.53
2017-10-21T01:57:04.924Z,8.40
2017-10-21T01:59:33.220Z,6.07
2017-10-21T02:02:00.752Z,8.03
2017-10-21T02:04:29.029Z,6.97
2017-10-21T02:06:57.358Z,7.13
2017-10-21T02:09:24.853Z,6.77
2017-10-21T02:11:52.359Z,5.37
2017-10-21T02:14:19.905Z,6.77
2017-10-21T02:16:47.409Z,9.30
2017-10-21T02:19:14.944Z,5.10
2017-10-21T02:21:42.455Z,7.53
2017-10-21T02:24:09.961Z,5.23
2017-10-21T02:26:37.492Z,3.90
2017-10-21T02:29:05.826Z,6.27
2017-10-21T02:31:33.676Z,3.60
2017-10-21T02:34:01.281Z,6.57
2017-10-21T02:36:29.102Z,4.23
2017-10-21T02:38:56.660Z,5.13
2017-10-21T02:41:24.175Z,4.40
2017-10-21T02:43:51.978Z,4.73
2017-10-21T02:46:19.488Z,6.10
2017-10-21T02:48:47.004Z,5.53
2017-10-21T02:51:14.539Z,5.10
2017-10-21T02:53:42.814Z,4.33
2017-10-21T02:56:10.655Z,8.07
2017-10-21T02:58:38.157Z,4.00
2017-10-21T03:01:05.694Z,3.90
2017-10-21T03:03:34.023Z,4.00
2017-10-21T03:06:01.573Z,3.60
2017-10-21T03:08:29.141Z,3.00
2017-10-21T03:10:56.662Z,9.53
2017-10-21T03:13:24.929Z,3.23
2017-10-21T03:15:53.229Z,3.03
2017-10-21T03:18:20.754Z,3.47
2017-10-21T03:20:48.318Z,4.80
2017-10-21T03:23:15.836Z,3.57
2017-10-21T03:25:43.357Z,7.20
2017-10-21T03:28:11.663Z,5.20
2017-10-21T03:30:39.195Z,5.43
2017-10-21T03:33:07.520Z,7.03
2017-10-21T03:35:35.028Z,5.77
2017-10-21T03:38:03.317Z,4.63
2017-10-21T03:40:31.618Z,4.53
2017-10-21T03:42:59.151Z,4.17
2017-10-21T03:45:27.761Z,4.57
2017-10-21T03:47:55.258Z,7.27
2017-10-21T03:50:22.789Z,4.27
2017-10-21T03:52:50.322Z,3.80
2017-10-21T03:55:17.855Z,3.70
2017-10-21T03:57:46.181Z,4.60
2017-10-21T04:00:14.455Z,3.60
2017-10-21T04:02:41.962Z,6.40
2017-10-21T04:05:09.507Z,8.17
2017-10-21T04:07:37.010Z,6.30
2017-10-21T04:10:05.301Z,3.67
2017-10-21T04:12:32.818Z,6.50
2017-10-21T04:15:00.533Z,4.67
2017-10-21T04:17:29.090Z,6.77
2017-10-21T04:19:57.374Z,3.87
2017-10-21T04:22:25.653Z,10.33
2017-10-21T04:24:53.506Z,5.40
2017-10-21T04:27:21.800Z,5.70
2017-10-21T04:29:49.319Z,3.20
2017-10-21T04:32:16.855Z,8.50
2017-10-21T04:34:44.362Z,4.83
2017-10-21T04:37:11.963Z,3.90
2017-10-21T04:39:39.459Z,8.53
2017-10-21T04:42:06.986Z,4.07
2017-10-21T04:44:34.646Z,4.23
2017-10-21T04:47:02.155Z,8.30
2017-10-21T04:49:29.695Z,4.63
2017-10-21T04:51:57.225Z,3.40
2017-10-21T04:54:24.731Z,2.60
2017-10-21T04:56:52.290Z,5.30
2017-10-21T04:59:19.792Z,7.87
2017-10-21T05:01:47.636Z,5.17
2017-10-21T05:04:15.910Z,5.43
2017-10-21T05:06:44.195Z,5.60
2017-10-21T05:09:12.802Z,6.03
2017-10-21T05:11:40.476Z,6.47
2017-10-21T05:14:07.982Z,4.00
2017-10-21T05:16:36.633Z,3.37
2017-10-21T05:19:04.918Z,4.27
2017-10-21T05:21:32.565Z,5.93
2017-10-21T05:24:00.446Z,3.80
2017-10-21T05:26:28.003Z,5.10
2017-10-21T05:28:55.618Z,4.03
2017-10-21T05:31:23.593Z,6.63
2017-10-21T05:33:52.686Z,4.80
2017-10-21T05:36:21.020Z,3.90
2017-10-21T05:38:48.975Z,3.10
2017-10-21T05:41:16.550Z,7.47
2017-10-21T05:43:44.130Z,5.43
2017-10-21T05:46:11.970Z,3.87
2017-10-21T05:48:39.543Z,5.17
2017-10-21T05:51:07.063Z,8.90
2017-10-21T05:53:34.916Z,3.47
2017-10-21T05:56:02.464Z,5.70
2017-10-21T05:58:30.783Z,3.87
2017-10-21T06:00:58.790Z,5.50
2017-10-21T06:03:26.326Z,4.20
2017-10-21T06:05:53.838Z,6.90
2017-10-21T06:08:25.590Z,8.03
2017-10-21T06:10:53.193Z,10.83
2017-10-21T06:13:21.002Z,3.87
2017-10-21T06:15:48.500Z,7.53
2017-10-21T06:18:16.017Z,4.50
2017-10-21T06:20:43.849Z,3.70
2017-10-21T06:23:11.366Z,5.13
2017-10-21T06:25:39.654Z,5.93
2017-10-21T06:28:08.247Z,4.23
2017-10-21T06:30:36.524Z,4.13
2017-10-21T06:33:04.814Z,5.20
2017-10-21T06:35:32.723Z,10.63
2017-10-21T06:38:00.229Z,6.00
2017-10-21T06:40:28.494Z,4.17
2017-10-21T06:42:56.417Z,4.23
2017-10-21T06:45:23.922Z,4.37
2017-10-21T06:47:52.479Z,6.27
2017-10-21T06:50:20.300Z,5.50
2017-10-21T06:52:47.829Z,3.67
2017-10-21T06:55:16.142Z,3.37
2017-10-21T06:57:43.962Z,4.37
2017-10-21T07:00:11.482Z,4.67
2017-10-21T07:02:39.005Z,5.50
2017-10-21T07:05:06.823Z,3.97
2017-10-21T07:07:34.345Z,5.83
2017-10-21T07:10:01.859Z,8.73
2017-10-21T07:12:29.697Z,8.67
2017-10-21T07:14:58.242Z,10.63
2017-10-21T07:17:26.517Z,6.50
2017-10-21T07:19:54.821Z,7.80
2017-10-21T07:22:22.330Z,6.77
2017-10-21T07:24:49.883Z,5.23
2017-10-21T07:27:17.414Z,4.63
2017-10-21T07:29:44.951Z,3.30
2017-10-21T07:32:12.514Z,4.43
2017-10-21T07:34:40.067Z,11.20
2017-10-21T07:37:07.662Z,9.13
2017-10-21T07:39:35.415Z,9.17
2017-10-21T07:42:02.921Z,8.83
2017-10-21T07:44:30.454Z,4.00
2017-10-21T07:46:57.967Z,4.70
2017-10-21T07:49:25.507Z,5.33
2017-10-21T07:51:53.047Z,6.80
2017-10-21T07:54:20.591Z,5.87
2017-10-21T07:56:48.138Z,6.87
2017-10-21T07:59:15.683Z,6.00
2017-10-21T08:01:43.205Z,7.63
2017-10-21T08:04:10.786Z,6.20
2017-10-21T08:06:39.079Z,6.27
2017-10-21T08:09:06.662Z,4.70
2017-10-21T08:11:34.176Z,4.37
2017-10-21T08:14:02.580Z,9.37
2017-10-21T08:16:30.074Z,6.37
2017-10-21T08:18:57.613Z,18.23
2017-10-21T08:21:25.149Z,4.47
2017-10-21T08:23:53.025Z,9.17
2017-10-21T08:26:20.581Z,4.70
2017-10-21T08:28:48.842Z,8.77
2017-10-21T08:31:17.149Z,7.93
2017-10-21T08:33:44.694Z,5.00
2017-10-21T08:36:12.227Z,6.20
2017-10-21T08:38:39.745Z,7.13
2017-10-21T08:41:07.305Z,7.30
2017-10-21T08:43:34.825Z,4.30
2017-10-21T08:46:03.132Z,9.40
2017-10-21T08:48:30.685Z,5.50
2017-10-21T08:50:58.260Z,5.73
2017-10-21T08:53:25.766Z,7.80
2017-10-21T08:55:53.304Z,4.50
2017-10-21T08:58:20.803Z,3.50
2017-10-21T09:00:49.109Z,3.97
2017-10-21T09:03:16.619Z,4.83
2017-10-21T09:05:44.210Z,6.80
2017-10-21T09:08:11.715Z,3.83
2017-10-21T09:10:39.239Z,5.83
2017-10-21T09:13:06.759Z,8.80
2017-10-21T09:15:34.315Z,4.10
2017-10-21T09:18:01.836Z,10.50
2017-10-21T09:20:29.407Z,6.63
2017-10-21T09:22:56.958Z,7.53
2017-10-21T09:25:24.497Z,6.90
2017-10-21T09:27:52.063Z,5.17
2017-10-21T09:30:19.650Z,4.33
2017-10-21T09:32:47.167Z,5.53
2017-10-21T09:35:14.724Z,7.63
2017-10-21T09:37:42.588Z,8.73
2017-10-21T09:40:11.259Z,34.10
2017-10-21T09:42:38.778Z,9.60
2017-10-21T09:45:06.307Z,5.93
2017-10-21T09:47:34.611Z,4.30
2017-10-21T09:50:02.301Z,6.50
2017-10-21T09:52:29.853Z,9.83
2017-10-21T09:54:57.403Z,14.40
2017-10-21T09:57:24.971Z,16.00
2017-10-21T09:59:52.505Z,5.80
2017-10-21T10:02:20.036Z,8.20
2017-10-21T10:04:47.580Z,8.93
2017-10-21T10:07:15.113Z,7.03
2017-10-21T10:09:42.661Z,6.30
2017-10-21T10:12:10.224Z,7.20
2017-10-21T10:14:37.751Z,9.20
2017-10-21T10:17:05.319Z,10.70
2017-10-21T10:19:32.833Z,9.40
2017-10-21T10:22:00.399Z,7.97
2017-10-21T10:24:27.937Z,7.17
2017-10-21T10:26:55.519Z,7.73
2017-10-21T10:29:23.958Z,5.03
2017-10-21T10:31:51.544Z,6.17
2017-10-21T10:34:19.056Z,9.10
2017-10-21T10:36:46.674Z,7.27
2017-10-21T10:39:14.205Z,11.03
2017-10-21T10:41:41.751Z,8.50
2017-10-21T10:44:09.327Z,7.40
2017-10-21T10:46:36.932Z,6.17
2017-10-21T10:49:04.474Z,6.47
2017-10-21T10:51:32.033Z,7.57
2017-10-21T10:53:59.539Z,6.83
2017-10-21T10:56:28.152Z,7.37
2017-10-21T10:58:55.683Z,5.77
2017-10-21T11:01:23.951Z,8.63
2017-10-21T11:03:52.279Z,6.73
2017-10-21T11:06:19.820Z,6.10
2017-10-21T11:08:47.399Z,12.73
2017-10-21T11:11:14.929Z,9.50
2017-10-21T11:13:42.474Z,6.50
2017-10-21T11:16:10.779Z,8.80
2017-10-21T11:18:38.353Z,12.13
2017-10-21T11:21:05.879Z,10.23
2017-10-21T11:23:34.227Z,10.40
2017-10-21T11:26:01.831Z,11.00
2017-10-21T11:28:29.388Z,8.40
2017-10-21T11:30:57.676Z,8.03
2017-10-21T11:33:25.225Z,9.20
2017-10-21T11:35:52.777Z,7.23
2017-10-21T11:38:20.394Z,14.20
2017-10-21T11:40:47.980Z,8.83
2017-10-21T11:43:15.584Z,14.00
2017-10-21T11:45:43.190Z,7.77
2017-10-21T11:48:10.795Z,7.00
2017-10-21T11:50:38.379Z,8.80
2017-10-21T11:53:05.952Z,8.40
2017-10-21T11:55:33.517Z,11.57
2017-10-21T11:58:01.106Z,8.90
2017-10-21T12:00:28.636Z,8.00
2017-10-21T12:02:56.178Z,9.57
2017-10-21T12:05:23.706Z,8.40
2017-10-21T12:07:52.040Z,8.20
2017-10-21T12:10:19.970Z,7.33
2017-10-21T12:12:47.965Z,6.87
2017-10-21T12:15:16.240Z,7.53
2017-10-21T12:17:43.868Z,7.10
2017-10-21T12:20:12.477Z,7.00
2017-10-21T12:22:40.148Z,4.90
2017-10-21T12:25:07.652Z,7.57
2017-10-21T12:27:35.474Z,4.77
2017-10-21T12:30:03.031Z,5.20
2017-10-21T12:32:31.011Z,10.00
2017-10-21T12:34:58.872Z,6.70
2017-10-21T12:37:26.412Z,4.90
2017-10-21T12:39:53.939Z,5.27
2017-10-21T12:42:21.749Z,4.50
2017-10-21T12:44:49.377Z,6.10
2017-10-21T12:47:17.663Z,6.20
2017-10-21T12:49:46.269Z,6.50
2017-10-21T12:52:13.791Z,4.93
2017-10-21T12:54:41.424Z,5.27
2017-10-21T12:57:09.293Z,4.70
2017-10-21T12:59:36.807Z,7.70
2017-10-21T13:02:04.320Z,4.90
2017-10-21T13:04:32.352Z,6.97
2017-10-21T13:06:59.866Z,4.20
2017-10-21T13:09:27.379Z,6.97
2017-10-21T13:11:55.417Z,5.03
2017-10-21T13:14:23.746Z,6.67
2017-10-21T13:16:51.275Z,4.63
2017-10-21T13:19:19.269Z,5.77
2017-10-21T13:21:46.817Z,10.60
2017-10-21T13:24:14.334Z,7.60
2017-10-21T13:26:42.191Z,4.83
2017-10-21T13:29:09.706Z,5.23
2017-10-21T13:31:38.039Z,6.03
2017-10-21T13:34:06.666Z,7.73
2017-10-21T13:36:34.187Z,5.10
2017-10-21T13:39:01.819Z,8.50
2017-10-21T13:41:29.660Z,6.80
2017-10-21T13:43:57.190Z,5.80
2017-10-21T13:46:25.479Z,6.43
2017-10-21T13:48:54.079Z,6.13
2017-10-21T13:51:21.592Z,6.00
2017-10-21T13:53:49.212Z,6.43
2017-10-21T13:56:17.799Z,9.03
2017-10-21T13:58:45.392Z,9.80
2017-10-21T14:01:12.932Z,11.97
2017-10-21T14:03:40.796Z,8.00
2017-10-21T14:06:08.377Z,9.70
2017-10-21T14:08:35.905Z,8.70
2017-10-21T14:11:03.914Z,7.07
2017-10-21T14:13:31.509Z,9.87
2017-10-21T14:15:59.039Z,9.00
2017-10-21T14:18:27.794Z,8.17
2017-10-21T14:20:55.340Z,7.63
2017-10-21T14:23:23.014Z,7.10
2017-10-21T14:25:51.297Z,6.97
2017-10-21T14:28:22.668Z,6.53
2017-10-21T14:30:50.398Z,8.83
2017-10-21T14:33:20.115Z,10.67
2017-10-21T14:35:47.828Z,7.83
2017-10-21T14:38:15.524Z,10.40
2017-10-21T14:40:43.500Z,13.67
2017-10-21T14:43:11.114Z,11.20
2017-10-21T14:45:39.824Z,13.57
2017-10-21T14:48:07.787Z,17.17
2017-10-21T14:50:35.380Z,16.20
2017-10-21T14:53:03.134Z,13.50
2017-10-21T14:55:31.813Z,13.47
2017-10-21T14:58:00.218Z,15.40
2017-10-21T15:00:27.921Z,15.43
2017-10-21T15:02:55.885Z,18.37
2017-10-21T15:05:23.560Z,12.53
2017-10-21T15:07:51.087Z,13.70
2017-10-21T15:10:19.603Z,15.73
2017-10-21T15:12:48.070Z,13.33
2017-10-21T15:15:15.679Z,13.47
2017-10-21T15:17:43.683Z,13.40
2017-10-21T15:20:11.386Z,17.40
2017-10-21T15:22:40.457Z,13.60
2017-10-21T15:25:08.391Z,16.93
2017-10-21T15:27:36.024Z,14.73
2017-10-21T15:30:03.615Z,15.33
2017-10-21T15:32:31.572Z,14.10
2017-10-21T15:34:59.169Z,17.97
2017-10-21T15:37:26.746Z,19.33
2017-10-21T15:39:54.856Z,14.67
2017-10-21T15:42:22.383Z,13.90
2017-10-21T15:44:49.937Z,20.33
2017-10-21T15:47:17.914Z,13.33
2017-10-21T15:49:45.424Z,14.90
2017-10-21T15:52:12.959Z,16.83
2017-10-21T15:54:41.633Z,19.37
2017-10-21T15:57:09.165Z,22.30
2017-10-21T15:59:36.731Z,20.10
2017-10-21T16:02:04.547Z,15.00
2017-10-21T16:04:32.847Z,21.63
2017-10-21T16:07:01.160Z,22.03
2017-10-21T16:09:28.964Z,21.33
2017-10-21T16:11:57.307Z,20.40
2017-10-21T16:14:24.945Z,21.60
2017-10-21T16:16:52.907Z,19.10
2017-10-21T16:19:20.574Z,15.13
2017-10-21T16:21:48.190Z,16.40
2017-10-21T16:24:16.925Z,19.93
2017-10-21T16:26:44.613Z,17.07
2017-10-21T16:29:12.161Z,19.43
2017-10-21T16:31:40.017Z,17.60
2017-10-21T16:34:07.665Z,17.93
2017-10-21T16:36:35.284Z,17.90
2017-10-21T16:39:03.367Z,20.50
2017-10-21T16:41:31.305Z,14.83
2017-10-21T16:44:00.151Z,14.40
2017-10-21T16:46:28.759Z,21.37
2017-10-21T16:48:56.406Z,18.47
2017-10-21T16:51:24.443Z,20.80
2017-10-21T16:53:53.007Z,21.20
2017-10-21T16:56:21.365Z,19.30
2017-10-21T16:58:48.890Z,23.97
2017-10-21T17:01:17.515Z,20.30
2017-10-21T17:03:45.026Z,18.77
2017-10-21T17:06:12.548Z,18.87
2017-10-21T17:08:40.129Z,23.97
2017-10-21T17:11:07.663Z,23.77
2017-10-21T17:13:35.203Z,28.53
2017-10-21T17:16:02.724Z,23.80
2017-10-21T17:18:31.066Z,22.47
2017-10-21T17:20:58.614Z,27.27
2017-10-21T17:23:26.551Z,24.50
2017-10-21T17:25:55.990Z,28.20
2017-10-21T17:28:24.283Z,31.70
2017-10-21T17:30:52.608Z,27.00
2017-10-21T17:33:20.241Z,27.23
2017-10-21T17:35:47.876Z,27.63
2017-10-21T17:38:15.583Z,29.23
2017-10-21T17:40:43.197Z,32.40
2017-10-21T17:43:10.823Z,31.83
2017-10-21T17:45:38.453Z,39.73
2017-10-21T17:48:06.052Z,31.00
2017-10-21T17:50:33.795Z,27.07
2017-10-21T17:53:01.520Z,31.33
2017-10-21T17:55:30.612Z,33.53
2017-10-21T17:57:59.104Z,29.93
2017-10-21T18:00:26.690Z,37.80
2017-10-21T18:02:54.206Z,31.90
2017-10-21T18:05:21.756Z,31.57
2017-10-21T18:07:49.335Z,37.07
2017-10-21T18:10:16.888Z,30.97
2017-10-21T18:12:44.433Z,37.97
2017-10-21T18:15:12.056Z,34.83
2017-10-21T18:17:39.587Z,32.07
2017-10-21T18:20:08.135Z,32.47
2017-10-21T18:22:36.466Z,38.90
2017-10-21T18:25:04.904Z,33.93
2017-10-21T18:27:32.540Z,41.60
2017-10-21T18:30:00.888Z,36.33
2017-10-21T18:32:28.442Z,40.80
2017-10-21T18:34:56.298Z,39.97
2017-10-21T18:37:23.848Z,35.10
2017-10-21T18:39:51.410Z,33.90
2017-10-21T18:42:19.028Z,42.53
2017-10-21T18:44:47.403Z,30.80
2017-10-21T18:47:15.718Z,37.13
2017-10-21T18:49:43.317Z,34.20
2017-10-21T18:52:10.888Z,41.13
2017-10-21T18:54:38.465Z,46.93
2017-10-21T18:57:06.077Z,39.53
2017-10-21T18:59:33.673Z,42.33
2017-10-21T19:02:01.296Z,38.10
2017-10-21T19:04:28.837Z,34.43
2017-10-21T19:06:56.381Z,30.10
2017-10-21T19:09:23.921Z,36.60
2017-10-21T19:11:51.468Z,31.87
2017-10-21T19:14:18.989Z,28.77
2017-10-21T19:16:46.583Z,26.40
2017-10-21T19:19:14.135Z,34.33
2017-10-21T19:21:41.699Z,29.60
2017-10-21T19:24:09.230Z,33.70
2017-10-21T19:26:36.811Z,34.00
2017-10-21T19:29:05.494Z,30.20
2017-10-21T19:31:35.394Z,28.67
2017-10-21T19:34:05.189Z,33.00
2017-10-21T19:39:07.981Z,37.50
2017-10-21T19:41:36.483Z,37.70
2017-10-21T19:44:04.327Z,40.83
2017-10-21T19:46:31.877Z,36.73
2017-10-21T19:48:59.986Z,42.40
2017-10-21T19:51:29.627Z,33.20
2017-10-21T19:53:57.790Z,41.40
2017-10-21T19:56:26.853Z,38.93
2017-10-21T19:58:55.239Z,35.10
2017-10-21T20:01:23.390Z,37.90
2017-10-21T20:03:52.009Z,35.40
2017-10-21T20:06:20.355Z,36.33
2017-10-21T20:08:48.657Z,41.07
2017-10-21T20:11:16.726Z,31.37
2017-10-21T20:13:45.003Z,35.80
2017-10-21T20:16:13.441Z,39.67
2017-10-21T20:18:41.412Z,35.03
2017-10-21T20:21:08.947Z,33.10
2017-10-21T20:23:36.506Z,34.40
2017-10-21T20:26:04.424Z,36.50
2017-10-21T20:28:31.971Z,31.37
2017-10-21T20:30:59.515Z,33.07
2017-10-21T20:33:27.380Z,32.63
2017-10-21T20:35:54.954Z,31.10
2017-10-21T20:38:22.506Z,32.13
2017-10-21T20:40:50.371Z,37.03
2017-10-21T20:43:17.896Z,38.13
2017-10-21T20:45:45.602Z,33.43
2017-10-21T20:48:13.481Z,35.33
2017-10-21T20:50:41.009Z,32.20
2017-10-21T20:53:08.533Z,33.40
2017-10-21T20:55:37.151Z,25.67
2017-10-21T20:58:04.700Z,31.43
2017-10-21T21:00:32.241Z,27.40
2017-10-21T21:02:59.806Z,28.90
2017-10-21T21:05:28.430Z,32.83
2017-10-21T21:07:56.635Z,28.80
2017-10-21T21:10:24.291Z,33.27
2017-10-21T21:12:52.055Z,31.33
2017-10-21T21:15:20.555Z,29.13
2017-10-21T21:17:48.916Z,29.60
2017-10-21T21:20:16.485Z,23.10
2017-10-21T21:22:44.048Z,29.27
2017-10-21T21:25:11.596Z,23.73
2017-10-21T21:27:39.196Z,19.53
2017-10-21T21:30:06.750Z,29.40
2017-10-21T21:32:35.074Z,21.63
2017-10-21T21:35:02.596Z,25.03
2017-10-21T21:37:30.914Z,21.53
2017-10-21T21:39:58.454Z,23.20
2017-10-21T21:42:26.010Z,20.97
2017-10-21T21:44:53.545Z,19.90
2017-10-21T21:47:21.862Z,20.00
2017-10-21T21:49:49.417Z,16.17
2017-10-21T21:52:16.988Z,17.57
2017-10-21T21:54:44.525Z,17.80
2017-10-21T21:57:12.064Z,21.47
2017-10-21T21:59:40.395Z,19.73
2017-10-21T22:02:08.014Z,19.13
2017-10-21T22:04:36.355Z,16.93
2017-10-21T22:07:03.877Z,18.97
2017-10-21T22:09:31.442Z,17.33
2017-10-21T22:11:58.975Z,17.50
2017-10-21T22:14:27.288Z,17.00
2017-10-21T22:16:54.830Z,17.13
2017-10-21T22:19:23.154Z,20.33
2017-10-21T22:21:50.690Z,15.47
2017-10-21T22:24:18.344Z,16.53
2017-10-21T22:26:45.866Z,16.30
2017-10-21T22:29:14.186Z,18.10
2017-10-21T22:31:41.752Z,17.03
2017-10-21T22:34:09.289Z,15.20
2017-10-21T22:36:36.812Z,22.60
2017-10-21T22:39:04.391Z,19.67
2017-10-21T22:41:32.671Z,18.10
2017-10-21T22:44:00.980Z,17.73
2017-10-21T22:46:28.486Z,21.03
2017-10-21T22:48:56.100Z,16.37
2017-10-21T22:51:23.627Z,16.13
2017-10-21T22:53:51.920Z,17.60
2017-10-21T22:56:19.498Z,17.20
2017-10-21T22:58:47.081Z,16.97
2017-10-21T23:01:15.327Z,15.77
2017-10-21T23:03:42.855Z,19.60
2017-10-21T23:06:11.165Z,18.67
2017-10-21T23:08:39.149Z,19.07
2017-10-21T23:11:06.694Z,16.73
2017-10-21T23:13:34.215Z,22.00
2017-10-21T23:16:02.051Z,21.50
2017-10-21T23:18:29.576Z,23.30
2017-10-21T23:20:57.102Z,21.73
2017-10-21T23:23:24.953Z,26.83
2017-10-21T23:25:52.462Z,21.43
2017-10-21T23:28:19.994Z,21.47
2017-10-21T23:30:47.806Z,18.93
2017-10-21T23:33:15.346Z,21.63
2017-10-21T23:35:42.890Z,20.97
2017-10-21T23:38:11.544Z,28.87
2017-10-21T23:40:39.055Z,30.00
2017-10-21T23:43:06.608Z,28.57
2017-10-21T23:45:34.534Z,29.90
2017-10-21T23:48:02.061Z,38.77
2017-10-21T23:50:29.585Z,38.30
2017-10-21T23:52:58.203Z,32.07
2017-10-21T23:55:25.727Z,41.63
2017-10-21T23:57:54.013Z,33.30
